createdAt,value
2022-10-13T00:00:17.229Z,8.31
2022-10-13T00:01:17.325Z,8.31
2022-10-13T00:02:17.504Z,8.28
2022-10-13T00:03:17.197Z,8.31
2022-10-13T00:04:17.189Z,8.26
2022-10-13T00:05:17.176Z,8.28
2022-10-13T00:06:17.166Z,8.26
2022-10-13T00:07:17.149Z,8.26
2022-10-13T00:08:17.137Z,8.24
2022-10-13T00:09:17.126Z,8.26
2022-10-13T00:10:17.125Z,8.24
2022-10-13T00:11:17.106Z,8.24
2022-10-13T00:12:17.415Z,8.26
2022-10-13T00:13:17.076Z,8.26
2022-10-13T00:14:17.057Z,8.27
2022-10-13T00:15:17.045Z,8.24
2022-10-13T00:16:17.065Z,8.28
2022-10-13T00:17:17.015Z,8.28
2022-10-13T00:18:17.014Z,8.26
2022-10-13T00:19:17.003Z,8.26
2022-10-13T00:20:17.005Z,8.26
2022-10-13T00:21:17.029Z,8.26
2022-10-13T00:22:17.422Z,8.26
2022-10-13T00:23:17.004Z,8.27
2022-10-13T00:24:16.961Z,8.31
2022-10-13T00:25:16.973Z,8.27
2022-10-13T00:26:16.935Z,8.31
2022-10-13T00:27:16.932Z,8.32
2022-10-13T00:28:16.981Z,8.34
2022-10-13T00:29:16.903Z,8.34
2022-10-13T00:30:16.913Z,8.34
2022-10-13T00:31:16.906Z,8.35
2022-10-13T00:32:17.227Z,8.38
2022-10-13T00:33:16.883Z,8.38
2022-10-13T00:34:16.854Z,8.38
2022-10-13T00:35:16.894Z,8.38
2022-10-13T00:36:16.841Z,8.39
2022-10-13T00:37:16.837Z,8.41
2022-10-13T00:38:16.804Z,8.42
2022-10-13T00:39:16.793Z,8.39
2022-10-13T00:40:16.822Z,8.41
2022-10-13T00:41:16.811Z,8.41
2022-10-13T00:42:17.194Z,8.41
2022-10-13T00:43:16.749Z,8.42
2022-10-13T00:44:16.724Z,8.44
2022-10-13T00:45:16.732Z,8.44
2022-10-13T00:46:16.742Z,8.42
2022-10-13T00:47:16.712Z,8.45
2022-10-13T00:48:16.712Z,8.44
2022-10-13T00:49:16.692Z,8.46
2022-10-13T00:50:16.693Z,8.45
2022-10-13T00:51:16.671Z,8.45
2022-10-13T00:52:16.925Z,8.44
2022-10-13T00:53:16.651Z,8.46
2022-10-13T00:54:16.641Z,8.45
2022-10-13T00:55:16.667Z,8.45
2022-10-13T00:56:16.644Z,8.46
2022-10-13T00:57:16.610Z,8.44
2022-10-13T00:58:16.622Z,8.44
2022-10-13T00:59:16.581Z,8.45
2022-10-13T01:00:16.580Z,8.45
2022-10-13T01:01:16.620Z,8.45
2022-10-13T01:02:17.051Z,8.46
2022-10-13T01:03:16.563Z,8.46
2022-10-13T01:04:16.530Z,8.45
2022-10-13T01:05:16.534Z,8.45
2022-10-13T01:06:19.914Z,8.45
2022-10-13T01:07:17.487Z,8.42
2022-10-13T01:08:16.470Z,8.45
2022-10-13T01:09:16.460Z,8.44
2022-10-13T01:10:16.449Z,8.44
2022-10-13T01:11:16.480Z,8.44
2022-10-13T01:12:16.787Z,8.44
2022-10-13T01:13:16.430Z,8.44
2022-10-13T01:14:16.410Z,8.41
2022-10-13T01:15:16.399Z,8.45
2022-10-13T01:16:16.374Z,8.44
2022-10-13T01:17:16.360Z,8.44
2022-10-13T01:18:16.358Z,8.44
2022-10-13T01:19:16.350Z,8.45
2022-10-13T01:20:16.337Z,8.45
2022-10-13T01:21:16.315Z,8.44
2022-10-13T01:22:16.555Z,8.45
2022-10-13T01:23:16.285Z,8.46
2022-10-13T01:24:16.267Z,8.45
2022-10-13T01:25:16.278Z,8.46
2022-10-13T01:26:16.248Z,8.45
2022-10-13T01:27:16.267Z,8.46
2022-10-13T01:28:16.268Z,8.45
2022-10-13T01:29:16.231Z,8.46
2022-10-13T01:30:16.208Z,8.46
2022-10-13T01:31:16.228Z,8.50
2022-10-13T01:32:16.553Z,8.46
2022-10-13T01:33:16.195Z,8.46
2022-10-13T01:34:16.160Z,8.49
2022-10-13T01:35:16.175Z,8.49
2022-10-13T01:36:16.137Z,8.49
2022-10-13T01:37:16.135Z,8.52
2022-10-13T01:38:16.116Z,8.52
2022-10-13T01:39:16.111Z,8.52
2022-10-13T01:40:16.116Z,8.53
2022-10-13T01:41:16.089Z,8.54
2022-10-13T01:42:16.496Z,8.53
2022-10-13T01:43:16.068Z,8.54
2022-10-13T01:44:16.055Z,8.54
2022-10-13T01:45:16.046Z,8.53
2022-10-13T01:46:16.036Z,8.56
2022-10-13T01:47:16.046Z,8.56
2022-10-13T01:48:16.005Z,8.56
2022-10-13T01:49:16.008Z,8.57
2022-10-13T01:50:15.995Z,8.54
2022-10-13T01:51:15.985Z,8.56
2022-10-13T01:52:16.376Z,8.57
2022-10-13T01:53:15.955Z,8.59
2022-10-13T01:54:15.965Z,8.57
2022-10-13T01:55:15.936Z,8.57
2022-10-13T01:56:15.924Z,8.57
2022-10-13T01:57:15.905Z,8.57
2022-10-13T01:58:15.904Z,8.59
2022-10-13T01:59:15.916Z,8.59
2022-10-13T02:00:15.884Z,8.60
2022-10-13T02:01:15.863Z,8.59
2022-10-13T02:02:16.237Z,8.57
2022-10-13T02:03:15.834Z,8.59
2022-10-13T02:04:15.840Z,8.60
2022-10-13T02:05:15.834Z,8.59
2022-10-13T02:06:15.859Z,8.57
2022-10-13T02:07:15.843Z,8.59
2022-10-13T02:08:15.836Z,8.61
2022-10-13T02:09:15.834Z,8.59
2022-10-13T02:10:15.803Z,8.61
2022-10-13T02:11:15.804Z,8.61
2022-10-13T02:12:16.075Z,8.61
2022-10-13T02:13:15.783Z,8.63
2022-10-13T02:14:15.763Z,8.64
2022-10-13T02:15:15.763Z,8.64
2022-10-13T02:16:15.723Z,8.64
2022-10-13T02:17:15.722Z,8.66
2022-10-13T02:18:15.705Z,8.63
2022-10-13T02:19:15.663Z,8.66
2022-10-13T02:20:15.676Z,8.68
2022-10-13T02:21:15.692Z,8.68
2022-10-13T02:22:15.804Z,8.66
2022-10-13T02:23:15.642Z,8.69
2022-10-13T02:24:15.613Z,8.68
2022-10-13T02:25:15.875Z,8.71
2022-10-13T02:26:15.592Z,8.69
2022-10-13T02:27:15.582Z,8.69
2022-10-13T02:28:15.646Z,8.71
2022-10-13T02:29:15.551Z,8.71
2022-10-13T02:30:15.929Z,8.71
2022-10-13T02:31:15.541Z,8.71
2022-10-13T02:32:15.634Z,8.71
2022-10-13T02:33:15.511Z,8.72
2022-10-13T02:34:15.500Z,8.74
2022-10-13T02:35:15.491Z,8.72
2022-10-13T02:36:15.481Z,8.74
2022-10-13T02:37:15.463Z,8.75
2022-10-13T02:38:15.460Z,8.74
2022-10-13T02:39:15.452Z,8.78
2022-10-13T02:40:15.460Z,8.77
2022-10-13T02:41:15.472Z,8.78
2022-10-13T02:42:15.541Z,8.78
2022-10-13T02:43:15.450Z,8.79
2022-10-13T02:44:15.435Z,8.81
2022-10-13T02:45:15.449Z,8.81
2022-10-13T02:46:15.441Z,8.82
2022-10-13T02:47:15.402Z,8.86
2022-10-13T02:48:15.392Z,8.84
2022-10-13T02:49:15.390Z,8.86
2022-10-13T02:50:15.382Z,8.84
2022-10-13T02:51:15.336Z,8.90
2022-10-13T02:52:15.363Z,8.89
2022-10-13T02:53:15.351Z,8.92
2022-10-13T02:54:15.299Z,8.93
2022-10-13T02:55:15.300Z,8.96
2022-10-13T02:56:15.300Z,8.95
2022-10-13T02:57:15.309Z,8.99
2022-10-13T02:58:15.312Z,8.96
2022-10-13T02:59:15.279Z,9.00
2022-10-13T03:00:15.291Z,9.00
2022-10-13T03:01:15.327Z,9.05
2022-10-13T03:02:15.244Z,9.05
2022-10-13T03:03:15.239Z,9.09
2022-10-13T03:04:15.247Z,9.11
2022-10-13T03:05:15.218Z,9.15
2022-10-13T03:06:15.224Z,9.13
2022-10-13T03:07:15.178Z,9.16
2022-10-13T03:08:15.179Z,9.16
2022-10-13T03:09:15.169Z,9.18
2022-10-13T03:10:15.169Z,9.19
2022-10-13T03:11:15.147Z,9.22
2022-10-13T03:12:15.226Z,9.26
2022-10-13T03:13:15.168Z,9.27
2022-10-13T03:14:15.126Z,9.29
2022-10-13T03:15:15.098Z,9.30
2022-10-13T03:16:15.107Z,9.30
2022-10-13T03:17:15.070Z,9.31
2022-10-13T03:18:15.048Z,9.31
2022-10-13T03:19:15.058Z,9.31
2022-10-13T03:20:15.050Z,9.33
2022-10-13T03:21:15.039Z,9.33
2022-10-13T03:22:15.037Z,9.34
2022-10-13T03:23:14.997Z,9.34
2022-10-13T03:24:15.006Z,9.34
2022-10-13T03:25:14.986Z,9.36
2022-10-13T03:26:14.993Z,9.37
2022-10-13T03:27:14.956Z,9.37
2022-10-13T03:28:14.972Z,9.36
2022-10-13T03:29:14.939Z,9.37
2022-10-13T03:30:14.928Z,9.36
2022-10-13T03:31:14.905Z,9.37
2022-10-13T03:32:14.916Z,9.37
2022-10-13T03:33:14.865Z,9.37
2022-10-13T03:34:14.947Z,9.39
2022-10-13T03:35:14.899Z,9.42
2022-10-13T03:36:14.845Z,9.39
2022-10-13T03:37:14.845Z,9.39
2022-10-13T03:38:14.835Z,9.39
2022-10-13T03:39:14.806Z,9.40
2022-10-13T03:40:14.815Z,9.39
2022-10-13T03:41:14.805Z,9.40
2022-10-13T03:42:14.815Z,9.37
2022-10-13T03:43:14.805Z,9.39
2022-10-13T03:44:14.777Z,9.39
2022-10-13T03:45:14.795Z,9.42
2022-10-13T03:46:14.781Z,9.37
2022-10-13T03:47:14.777Z,9.40
2022-10-13T03:48:14.769Z,9.39
2022-10-13T03:49:14.705Z,9.42
2022-10-13T03:50:14.713Z,9.40
2022-10-13T03:51:14.685Z,9.42
2022-10-13T03:52:14.667Z,9.44
2022-10-13T03:53:14.668Z,9.44
2022-10-13T03:54:14.634Z,9.40
2022-10-13T03:55:14.653Z,9.42
2022-10-13T03:56:14.634Z,9.44
2022-10-13T03:57:14.614Z,9.44
2022-10-13T03:58:14.606Z,9.42
2022-10-13T03:59:14.625Z,9.44
2022-10-13T04:00:14.623Z,9.44
2022-10-13T04:01:14.605Z,9.44
2022-10-13T04:02:14.593Z,9.44
2022-10-13T04:03:14.567Z,9.45
2022-10-13T04:04:14.565Z,9.44
2022-10-13T04:05:14.583Z,9.44
2022-10-13T04:06:14.535Z,9.45
2022-10-13T04:07:14.553Z,9.47
2022-10-13T04:08:14.542Z,9.47
2022-10-13T04:09:14.502Z,9.48
2022-10-13T04:10:14.532Z,9.48
2022-10-13T04:11:14.486Z,9.48
2022-10-13T04:12:19.762Z,9.49
2022-10-13T04:13:15.473Z,9.54
2022-10-13T04:14:14.473Z,9.51
2022-10-13T04:15:14.490Z,9.54
2022-10-13T04:16:14.401Z,9.52
2022-10-13T04:17:14.414Z,9.55
2022-10-13T04:18:14.430Z,9.54
2022-10-13T04:19:14.380Z,9.56
2022-10-13T04:20:15.075Z,9.58
2022-10-13T04:21:14.333Z,9.59
2022-10-13T04:22:14.345Z,9.62
2022-10-13T04:23:14.325Z,9.59
2022-10-13T04:24:14.355Z,9.63
2022-10-13T04:25:14.304Z,9.64
2022-10-13T04:26:14.291Z,9.63
2022-10-13T04:27:14.287Z,9.64
2022-10-13T04:28:14.346Z,9.64
2022-10-13T04:29:14.241Z,9.66
2022-10-13T04:30:14.281Z,9.66
2022-10-13T04:31:14.240Z,9.66
2022-10-13T04:32:14.222Z,9.66
2022-10-13T04:33:14.211Z,9.67
2022-10-13T04:34:14.190Z,9.64
2022-10-13T04:35:14.191Z,9.64
2022-10-13T04:36:14.214Z,9.69
2022-10-13T04:37:14.149Z,9.69
2022-10-13T04:38:14.148Z,9.67
2022-10-13T04:39:14.130Z,9.70
2022-10-13T04:40:14.149Z,9.69
2022-10-13T04:41:14.111Z,9.69
2022-10-13T04:42:14.101Z,9.69
2022-10-13T04:43:14.090Z,9.72
2022-10-13T04:44:14.079Z,9.73
2022-10-13T04:45:14.080Z,9.74
2022-10-13T04:46:14.090Z,9.74
2022-10-13T04:47:14.140Z,9.76
2022-10-13T04:48:14.069Z,9.76
2022-10-13T04:49:14.059Z,9.77
2022-10-13T04:50:14.060Z,9.76
2022-10-13T04:51:14.053Z,9.77
2022-10-13T04:52:14.020Z,9.76
2022-10-13T04:53:18.902Z,9.76
2022-10-13T04:54:15.019Z,9.77
2022-10-13T04:55:13.999Z,9.77
2022-10-13T04:56:13.975Z,9.76
2022-10-13T04:57:13.968Z,9.76
2022-10-13T04:58:13.951Z,9.77
2022-10-13T04:59:13.947Z,9.77
2022-10-13T05:00:13.938Z,9.76
2022-10-13T05:01:17.640Z,9.77
2022-10-13T05:02:14.938Z,9.77
2022-10-13T05:03:13.908Z,9.77
2022-10-13T05:04:13.943Z,9.81
2022-10-13T05:05:13.897Z,9.81
2022-10-13T05:06:13.878Z,9.80
2022-10-13T05:07:17.848Z,9.81
2022-10-13T05:08:13.851Z,9.81
2022-10-13T05:09:13.838Z,9.81
2022-10-13T05:10:13.847Z,9.77
2022-10-13T05:11:13.820Z,9.81
2022-10-13T05:12:13.817Z,9.81
2022-10-13T05:13:13.786Z,9.84
2022-10-13T05:14:13.797Z,9.84
2022-10-13T05:15:14.007Z,9.85
2022-10-13T05:16:13.758Z,9.87
2022-10-13T05:17:13.774Z,9.85
2022-10-13T05:18:13.756Z,9.85
2022-10-13T05:19:13.706Z,9.87
2022-10-13T05:20:14.256Z,9.85
2022-10-13T05:21:13.701Z,9.87
2022-10-13T05:22:13.700Z,9.87
2022-10-13T05:23:13.647Z,9.90
2022-10-13T05:24:13.733Z,9.88
2022-10-13T05:25:13.626Z,9.90
2022-10-13T05:26:13.634Z,9.88
2022-10-13T05:27:13.624Z,9.90
2022-10-13T05:28:13.637Z,9.90
2022-10-13T05:29:13.606Z,9.91
2022-10-13T05:30:14.266Z,9.88
2022-10-13T05:31:13.576Z,9.90
2022-10-13T05:32:13.571Z,9.91
2022-10-13T05:33:13.537Z,9.91
2022-10-13T05:34:13.537Z,9.88
2022-10-13T05:35:13.515Z,9.90
2022-10-13T05:36:13.515Z,9.88
2022-10-13T05:37:13.505Z,9.88
2022-10-13T05:38:13.514Z,9.88
2022-10-13T05:39:13.475Z,9.88
2022-10-13T05:40:13.477Z,9.88
2022-10-13T05:41:13.453Z,9.90
2022-10-13T05:42:13.455Z,9.88
2022-10-13T05:43:13.426Z,9.90
2022-10-13T05:44:13.415Z,9.90
2022-10-13T05:45:13.442Z,9.90
2022-10-13T05:46:13.395Z,9.88
2022-10-13T05:47:13.385Z,9.91
2022-10-13T05:48:13.395Z,9.92
2022-10-13T05:49:13.385Z,9.91
2022-10-13T05:50:13.353Z,9.90
2022-10-13T05:51:13.341Z,9.90
2022-10-13T05:52:13.359Z,9.90
2022-10-13T05:53:13.321Z,9.91
2022-10-13T05:54:13.313Z,9.92
2022-10-13T05:55:13.306Z,9.94
2022-10-13T05:56:13.303Z,9.95
2022-10-13T05:57:13.313Z,9.95
2022-10-13T05:58:13.292Z,9.97
2022-10-13T05:59:13.243Z,9.95
2022-10-13T06:00:13.253Z,9.92
2022-10-13T06:01:13.223Z,9.95
2022-10-13T06:02:13.252Z,9.97
2022-10-13T06:03:13.203Z,9.97
2022-10-13T06:04:13.210Z,9.99
2022-10-13T06:05:13.311Z,10.00
2022-10-13T06:06:13.183Z,10.02
2022-10-13T06:07:13.172Z,10.02
2022-10-13T06:08:13.153Z,10.03
2022-10-13T06:09:13.142Z,10.06
2022-10-13T06:10:13.212Z,10.06
2022-10-13T06:11:13.192Z,10.09
2022-10-13T06:12:13.121Z,10.12
2022-10-13T06:13:13.111Z,10.12
2022-10-13T06:14:13.081Z,10.12
2022-10-13T06:15:13.081Z,10.15
2022-10-13T06:16:13.072Z,10.17
2022-10-13T06:17:13.061Z,10.17
2022-10-13T06:18:13.041Z,10.15
2022-10-13T06:19:13.031Z,10.18
2022-10-13T06:20:13.018Z,10.18
2022-10-13T06:21:13.015Z,10.18
2022-10-13T06:22:12.995Z,10.23
2022-10-13T06:23:13.001Z,10.25
2022-10-13T06:24:13.051Z,10.25
2022-10-13T06:25:13.000Z,10.25
2022-10-13T06:26:13.052Z,10.27
2022-10-13T06:27:12.989Z,10.28
2022-10-13T06:28:13.033Z,10.30
2022-10-13T06:29:13.037Z,10.31
2022-10-13T06:30:12.949Z,10.33
2022-10-13T06:31:12.942Z,10.39
2022-10-13T06:32:12.930Z,10.39
2022-10-13T06:33:12.900Z,10.43
2022-10-13T06:34:12.900Z,10.45
2022-10-13T06:35:12.912Z,10.46
2022-10-13T06:36:12.900Z,10.46
2022-10-13T06:37:12.856Z,10.48
2022-10-13T06:38:12.850Z,10.51
2022-10-13T06:39:12.840Z,10.57
2022-10-13T06:40:12.810Z,10.58
2022-10-13T06:41:12.810Z,10.62
2022-10-13T06:42:12.812Z,10.65
2022-10-13T06:43:12.780Z,10.68
2022-10-13T06:44:12.774Z,10.71
2022-10-13T06:45:12.789Z,10.77
2022-10-13T06:46:12.779Z,10.79
2022-10-13T06:47:12.772Z,10.83
2022-10-13T06:48:12.741Z,10.83
2022-10-13T06:49:12.747Z,10.87
2022-10-13T06:50:12.709Z,10.90
2022-10-13T06:51:12.720Z,10.95
2022-10-13T06:52:12.717Z,10.97
2022-10-13T06:53:12.729Z,11.02
2022-10-13T06:54:12.689Z,11.05
2022-10-13T06:55:12.681Z,11.08
2022-10-13T06:56:12.717Z,11.15
2022-10-13T06:57:12.680Z,11.16
2022-10-13T06:58:12.642Z,11.23
2022-10-13T06:59:12.628Z,11.25
2022-10-13T07:00:12.629Z,11.30
2022-10-13T07:01:12.638Z,11.33
2022-10-13T07:02:12.577Z,11.35
2022-10-13T07:03:12.587Z,11.40
2022-10-13T07:04:12.547Z,11.43
2022-10-13T07:05:12.577Z,11.49
2022-10-13T07:06:12.667Z,11.48
2022-10-13T07:07:12.626Z,11.52
2022-10-13T07:08:12.507Z,11.55
2022-10-13T07:09:13.272Z,11.59
2022-10-13T07:10:12.567Z,11.59
2022-10-13T07:11:15.847Z,11.63
2022-10-13T07:12:12.564Z,11.63
2022-10-13T07:13:12.678Z,11.70
2022-10-13T07:14:13.165Z,11.71
2022-10-13T07:15:12.518Z,11.74
2022-10-13T07:16:12.416Z,11.76
2022-10-13T07:17:12.519Z,11.78
2022-10-13T07:18:12.717Z,11.83
2022-10-13T07:19:12.591Z,11.83
2022-10-13T07:20:12.407Z,11.86
2022-10-13T07:21:12.835Z,11.93
2022-10-13T07:22:12.699Z,11.96
2022-10-13T07:23:12.346Z,11.99
2022-10-13T07:24:12.668Z,12.03
2022-10-13T07:25:12.907Z,12.07
2022-10-13T07:26:12.650Z,12.11
2022-10-13T07:27:12.357Z,12.17
2022-10-13T07:28:12.344Z,12.18
2022-10-13T07:29:12.515Z,12.25
2022-10-13T07:30:12.308Z,12.26
2022-10-13T07:31:12.421Z,12.30
2022-10-13T07:32:12.456Z,12.36
2022-10-13T07:33:12.263Z,12.40
2022-10-13T07:34:13.639Z,12.48
2022-10-13T07:35:12.228Z,12.53
2022-10-13T07:36:12.567Z,12.54
2022-10-13T07:37:12.438Z,12.62
2022-10-13T07:38:12.407Z,12.63
2022-10-13T07:39:12.167Z,12.70
2022-10-13T07:40:12.356Z,12.76
2022-10-13T07:41:12.448Z,12.81
2022-10-13T07:42:12.127Z,12.83
2022-10-13T07:43:12.480Z,12.84
2022-10-13T07:44:12.138Z,12.84
2022-10-13T07:45:12.086Z,12.90
2022-10-13T07:46:12.076Z,12.98
2022-10-13T07:47:12.077Z,13.08
2022-10-13T07:48:12.056Z,13.17
2022-10-13T07:49:15.257Z,13.17
2022-10-13T07:50:12.051Z,13.13
2022-10-13T07:51:12.049Z,13.19
2022-10-13T07:52:12.039Z,13.24
2022-10-13T07:53:12.008Z,13.39
2022-10-13T07:54:11.985Z,13.49
2022-10-13T07:55:11.976Z,13.61
2022-10-13T07:56:12.076Z,13.76
2022-10-13T07:57:11.973Z,13.85
2022-10-13T07:58:11.936Z,13.97
2022-10-13T07:59:11.955Z,14.03
2022-10-13T08:00:11.917Z,14.11
2022-10-13T08:01:11.947Z,14.12
2022-10-13T08:02:11.926Z,14.12
2022-10-13T08:03:11.888Z,14.08
2022-10-13T08:04:11.877Z,14.11
2022-10-13T08:05:11.875Z,14.12
2022-10-13T08:06:11.878Z,14.08
2022-10-13T08:07:11.976Z,14.11
2022-10-13T08:08:11.865Z,14.12
2022-10-13T08:09:11.886Z,14.08
2022-10-13T08:10:11.846Z,14.05
2022-10-13T08:11:14.651Z,14.05
2022-10-13T08:12:11.943Z,14.03
2022-10-13T08:13:11.815Z,14.03
2022-10-13T08:14:11.785Z,14.01
2022-10-13T08:15:11.785Z,14.01
2022-10-13T08:16:11.793Z,13.97
2022-10-13T08:17:11.840Z,13.97
2022-10-13T08:18:11.745Z,13.97
2022-10-13T08:19:11.715Z,13.97
2022-10-13T08:20:11.705Z,13.95
2022-10-13T08:21:39.167Z,13.94
2022-10-13T08:22:12.745Z,13.91
2022-10-13T08:23:11.674Z,13.89
2022-10-13T08:24:12.065Z,13.86
2022-10-13T08:25:11.645Z,13.89
2022-10-13T08:26:11.902Z,13.89
2022-10-13T08:27:11.628Z,13.94
2022-10-13T08:28:11.751Z,13.97
2022-10-13T08:29:27.017Z,13.98
2022-10-13T08:30:12.824Z,14.03
2022-10-13T08:31:11.735Z,14.08
2022-10-13T08:32:11.641Z,14.12
2022-10-13T08:33:11.635Z,14.15
2022-10-13T08:34:11.555Z,14.18
2022-10-13T08:35:11.555Z,14.19
2022-10-13T08:36:11.556Z,14.25
2022-10-13T08:37:11.694Z,14.34
2022-10-13T08:38:11.554Z,14.41
2022-10-13T08:39:11.534Z,14.51
2022-10-13T08:40:11.525Z,14.56
2022-10-13T08:41:11.506Z,14.63
2022-10-13T08:42:11.583Z,14.66
2022-10-13T08:43:11.594Z,14.66
2022-10-13T08:44:56.684Z,14.66
2022-10-13T08:46:12.424Z,14.67
2022-10-13T08:47:11.459Z,14.68
2022-10-13T08:48:11.431Z,14.68
2022-10-13T08:49:11.489Z,14.74
2022-10-13T08:50:11.416Z,14.79
2022-10-13T08:51:11.457Z,14.85
2022-10-13T08:52:11.414Z,14.87
2022-10-13T08:53:11.445Z,14.86
2022-10-13T08:54:11.538Z,14.82
2022-10-13T08:55:11.396Z,14.81
2022-10-13T08:56:11.448Z,14.77
2022-10-13T08:57:11.354Z,14.73
2022-10-13T08:58:11.329Z,14.68
2022-10-13T08:59:11.304Z,14.68
2022-10-13T09:00:11.376Z,14.67
2022-10-13T09:01:11.303Z,14.66
2022-10-13T09:02:11.422Z,14.62
2022-10-13T09:03:11.292Z,14.63
2022-10-13T09:04:11.277Z,14.66
2022-10-13T09:05:11.244Z,14.68
2022-10-13T09:06:11.232Z,14.68
2022-10-13T09:07:11.287Z,14.71
2022-10-13T09:08:11.209Z,14.71
2022-10-13T09:09:11.226Z,14.77
2022-10-13T09:10:11.193Z,14.78
2022-10-13T09:11:11.173Z,14.77
2022-10-13T09:12:11.282Z,14.73
2022-10-13T09:13:11.187Z,14.70
2022-10-13T09:14:11.142Z,14.71
2022-10-13T09:15:11.178Z,14.70
2022-10-13T09:16:11.103Z,14.71
2022-10-13T09:17:11.164Z,14.68
2022-10-13T09:18:11.083Z,14.68
2022-10-13T09:19:11.153Z,14.63
2022-10-13T09:20:11.079Z,14.59
2022-10-13T09:21:11.045Z,14.58
2022-10-13T09:22:11.188Z,14.59
2022-10-13T09:23:11.046Z,14.59
2022-10-13T09:24:11.014Z,14.58
2022-10-13T09:25:11.063Z,14.56
2022-10-13T09:26:10.974Z,14.55
2022-10-13T09:27:10.962Z,14.56
2022-10-13T09:28:10.996Z,14.53
2022-10-13T09:29:11.006Z,14.53
2022-10-13T09:30:10.943Z,14.55
2022-10-13T09:31:13.849Z,14.56
2022-10-13T09:32:10.934Z,14.56
2022-10-13T09:33:10.925Z,14.55
2022-10-13T09:34:10.893Z,14.56
2022-10-13T09:35:10.898Z,14.56
2022-10-13T09:36:10.872Z,14.55
2022-10-13T09:37:10.863Z,14.55
2022-10-13T09:38:10.893Z,14.55
2022-10-13T09:39:10.852Z,14.58
2022-10-13T09:40:10.855Z,14.56
2022-10-13T09:41:10.842Z,14.58
2022-10-13T09:42:10.826Z,14.58
2022-10-13T09:43:10.834Z,14.56
2022-10-13T09:44:10.772Z,14.56
2022-10-13T09:45:10.796Z,14.56
2022-10-13T09:46:10.752Z,14.56
2022-10-13T09:47:10.754Z,14.59
2022-10-13T09:48:10.732Z,14.58
2022-10-13T09:49:10.785Z,14.55
2022-10-13T09:50:10.702Z,14.52
2022-10-13T09:51:10.701Z,14.52
2022-10-13T09:52:10.692Z,14.51
2022-10-13T09:53:10.692Z,14.52
2022-10-13T09:54:10.663Z,14.53
2022-10-13T09:55:10.654Z,14.55
2022-10-13T09:56:10.637Z,14.56
2022-10-13T09:57:10.628Z,14.61
2022-10-13T09:58:10.622Z,14.62
2022-10-13T09:59:10.613Z,14.68
2022-10-13T10:00:10.611Z,14.73
2022-10-13T10:01:10.659Z,14.82
2022-10-13T10:02:13.336Z,14.89
2022-10-13T10:03:11.592Z,14.97
2022-10-13T10:04:10.635Z,15.05
2022-10-13T10:05:10.735Z,15.15
2022-10-13T10:07:10.512Z,15.37
2022-10-13T10:08:10.511Z,15.50
2022-10-13T10:09:10.504Z,15.62
2022-10-13T10:10:10.481Z,15.75
2022-10-13T10:11:10.593Z,15.87
2022-10-13T10:12:10.474Z,15.96
2022-10-13T10:13:10.463Z,16.06
2022-10-13T10:14:10.441Z,16.10
2022-10-13T10:15:10.432Z,16.21
2022-10-13T10:16:10.478Z,16.25
2022-10-13T10:17:10.405Z,16.29
2022-10-13T10:18:10.391Z,16.36
2022-10-13T10:19:10.404Z,16.43
2022-10-13T10:20:10.382Z,16.44
2022-10-13T10:21:10.444Z,16.50
2022-10-13T10:22:10.352Z,16.57
2022-10-13T10:23:10.340Z,16.64
2022-10-13T10:24:10.363Z,16.66
2022-10-13T10:25:10.319Z,16.73
2022-10-13T10:26:10.311Z,16.82
2022-10-13T10:27:10.388Z,16.87
2022-10-13T10:28:10.299Z,16.89
2022-10-13T10:29:10.695Z,16.94
2022-10-13T10:30:10.272Z,16.97
2022-10-13T10:31:10.274Z,17.04
2022-10-13T10:32:10.252Z,17.09
2022-10-13T10:33:10.223Z,17.10
2022-10-13T10:34:13.617Z,17.13
2022-10-13T10:35:11.214Z,17.12
2022-10-13T10:36:10.214Z,17.10
2022-10-13T10:37:10.181Z,17.10
2022-10-13T10:38:10.173Z,17.12
2022-10-13T10:39:10.181Z,17.14
2022-10-13T10:40:10.173Z,17.17
2022-10-13T10:41:10.161Z,17.20
2022-10-13T10:42:10.151Z,17.24
2022-10-13T10:43:10.210Z,17.32
2022-10-13T10:44:10.133Z,17.38
2022-10-13T10:45:10.092Z,17.47
2022-10-13T10:46:10.093Z,17.50
2022-10-13T10:47:10.091Z,17.59
2022-10-13T10:48:10.092Z,17.71
2022-10-13T10:49:10.071Z,17.79
2022-10-13T10:50:10.062Z,17.88
2022-10-13T10:51:10.031Z,18.06
2022-10-13T10:52:10.013Z,18.23
2022-10-13T10:53:10.025Z,18.37
2022-10-13T10:54:10.081Z,18.52
2022-10-13T10:55:10.032Z,18.68
2022-10-13T10:56:10.068Z,18.85
2022-10-13T10:57:09.996Z,19.07
2022-10-13T10:58:09.951Z,19.26
2022-10-13T10:59:09.966Z,19.42
2022-10-13T11:00:10.045Z,19.57
2022-10-13T11:01:09.989Z,19.72
2022-10-13T11:02:09.934Z,19.77
2022-10-13T11:03:09.903Z,19.82
2022-10-13T11:04:09.901Z,19.92
2022-10-13T11:05:09.872Z,20.03
2022-10-13T11:06:09.887Z,20.10
2022-10-13T11:07:09.862Z,20.18
2022-10-13T11:08:09.867Z,20.33
2022-10-13T11:09:09.842Z,20.46
2022-10-13T11:10:09.837Z,20.58
2022-10-13T11:11:09.802Z,20.77
2022-10-13T11:12:09.815Z,21.03
2022-10-13T11:13:09.792Z,21.35
2022-10-13T11:14:09.796Z,21.69
2022-10-13T11:15:09.870Z,22.08
2022-10-13T11:16:09.810Z,22.36
2022-10-13T11:17:09.742Z,22.65
2022-10-13T11:18:09.730Z,22.89
2022-10-13T11:19:09.740Z,23.11
2022-10-13T11:20:09.725Z,23.32
2022-10-13T11:21:09.694Z,23.59
2022-10-13T11:22:09.784Z,23.85
2022-10-13T11:23:09.664Z,24.13
2022-10-13T11:24:09.733Z,24.32
2022-10-13T11:25:09.673Z,24.75
2022-10-13T11:26:09.643Z,25.14
2022-10-13T11:27:09.651Z,25.40
2022-10-13T11:28:09.623Z,25.73
2022-10-13T11:29:09.614Z,25.98
2022-10-13T11:30:09.616Z,26.15
2022-10-13T11:31:09.728Z,25.88
2022-10-13T11:32:09.579Z,25.26
2022-10-13T11:33:09.644Z,24.41
2022-10-13T11:34:09.552Z,23.81
2022-10-13T11:35:09.584Z,23.36
2022-10-13T11:36:09.524Z,23.04
2022-10-13T11:37:09.541Z,22.83
2022-10-13T11:38:14.012Z,22.73
2022-10-13T11:39:10.497Z,22.71
2022-10-13T11:40:09.515Z,22.58
2022-10-13T11:41:09.478Z,22.44
2022-10-13T11:42:09.516Z,22.34
2022-10-13T11:43:09.446Z,22.33
2022-10-13T11:44:09.456Z,22.30
2022-10-13T11:45:09.436Z,22.08
2022-10-13T11:46:09.445Z,21.88
2022-10-13T11:47:09.436Z,21.84
2022-10-13T11:49:09.458Z,21.84
2022-10-13T11:50:09.454Z,21.84
2022-10-13T11:51:11.319Z,21.94
2022-10-13T11:52:09.374Z,21.97
2022-10-13T11:53:09.340Z,22.00
2022-10-13T11:54:09.344Z,21.99
2022-10-13T11:55:09.347Z,21.97
2022-10-13T11:56:09.306Z,21.88
2022-10-13T11:57:09.432Z,21.80
2022-10-13T11:58:09.288Z,21.68
2022-10-13T11:59:09.267Z,21.63
2022-10-13T12:00:09.297Z,21.66
2022-10-13T12:01:09.244Z,21.66
2022-10-13T12:02:09.258Z,21.68
2022-10-13T12:03:09.277Z,21.69
2022-10-13T12:04:09.215Z,21.70
2022-10-13T12:05:09.227Z,21.74
2022-10-13T12:06:09.198Z,21.66
2022-10-13T12:07:09.178Z,21.56
2022-10-13T12:08:09.167Z,21.41
2022-10-13T12:09:09.160Z,21.29
2022-10-13T12:10:09.182Z,21.20
2022-10-13T12:11:09.147Z,21.08
2022-10-13T12:12:09.129Z,20.95
2022-10-13T12:13:09.107Z,20.86
2022-10-13T12:14:09.128Z,20.82
2022-10-13T12:15:09.116Z,20.85
2022-10-13T12:16:09.098Z,20.82
2022-10-13T12:17:12.250Z,20.75
2022-10-13T12:18:10.059Z,20.71
2022-10-13T12:19:09.071Z,20.66
2022-10-13T12:20:09.057Z,20.66
2022-10-13T12:21:09.033Z,20.66
2022-10-13T12:22:09.021Z,20.63
2022-10-13T12:23:08.999Z,20.58
2022-10-13T12:24:09.038Z,20.66
2022-10-13T12:25:09.000Z,20.74
2022-10-13T12:26:08.979Z,20.85
2022-10-13T12:27:08.960Z,21.11
2022-10-13T12:28:08.948Z,21.48
2022-10-13T12:29:08.962Z,21.85
2022-10-13T12:30:08.939Z,22.38
2022-10-13T12:31:08.951Z,22.55
2022-10-13T12:32:08.916Z,22.43
2022-10-13T12:33:08.949Z,22.25
2022-10-13T12:34:08.919Z,22.08
2022-10-13T12:35:08.929Z,22.06
2022-10-13T12:36:09.090Z,21.99
2022-10-13T12:37:08.920Z,22.04
2022-10-13T12:38:09.031Z,22.40
2022-10-13T12:39:08.839Z,22.71
2022-10-13T12:40:08.870Z,22.62
2022-10-13T12:41:08.841Z,22.52
2022-10-13T12:42:08.868Z,22.53
2022-10-13T12:43:08.839Z,22.56
2022-10-13T12:44:08.830Z,22.49
2022-10-13T12:45:08.823Z,22.34
2022-10-13T12:46:08.818Z,22.31
2022-10-13T12:47:08.791Z,22.34
2022-10-13T12:48:08.806Z,22.34
2022-10-13T12:49:08.840Z,22.36
2022-10-13T12:50:08.752Z,22.26
2022-10-13T12:51:08.731Z,22.22
2022-10-13T12:52:08.732Z,22.06
2022-10-13T12:53:08.729Z,21.91
2022-10-13T12:54:08.729Z,21.77
2022-10-13T12:55:08.684Z,21.68
2022-10-13T12:56:08.688Z,21.53
2022-10-13T12:57:08.700Z,21.37
2022-10-13T12:58:08.662Z,21.13
2022-10-13T12:59:08.642Z,20.93
2022-10-13T13:00:08.653Z,20.83
2022-10-13T13:01:08.677Z,20.78
2022-10-13T13:02:08.624Z,20.73
2022-10-13T13:03:08.614Z,20.67
2022-10-13T13:04:08.603Z,20.60
2022-10-13T13:05:08.580Z,20.49
2022-10-13T13:06:08.562Z,20.36
2022-10-13T13:07:08.563Z,20.33